sensor_id;sensor_type;location;lat;lon;timestamp;P1;durP1;ratioP1;P2;durP2;ratioP2
16177;SDS011;8195;51.220;9.746;2023-03-16T00:06:38;4.33;;;2.13;;
16177;SDS011;8195;51.220;9.746;2023-03-16T00:16:59;2.60;;;1.70;;
16177;SDS011;8195;51.220;9.746;2023-03-16T00:27:21;3.10;;;1.97;;
16177;SDS011;8195;51.220;9.746;2023-03-16T00:37:43;2.53;;;2.10;;
16177;SDS011;8195;51.220;9.746;2023-03-16T00:48:04;2.53;;;1.93;;
16177;SDS011;8195;51.220;9.746;2023-03-16T00:58:25;2.43;;;2.10;;
16177;SDS011;8195;51.220;9.746;2023-03-16T01:08:46;3.60;;;2.47;;
16177;SDS011;8195;51.220;9.746;2023-03-16T01:19:07;3.40;;;2.30;;
16177;SDS011;8195;51.220;9.746;2023-03-16T01:29:28;3.17;;;2.20;;
16177;SDS011;8195;51.220;9.746;2023-03-16T01:39:49;2.50;;;2.30;;
16177;SDS011;8195;51.220;9.746;2023-03-16T01:50:10;3.77;;;2.53;;
16177;SDS011;8195;51.220;9.746;2023-03-16T02:00:31;3.67;;;2.53;;
16177;SDS011;8195;51.220;9.746;2023-03-16T02:10:52;3.53;;;2.53;;
16177;SDS011;8195;51.220;9.746;2023-03-16T02:32:23;3.30;;;3.03;;
16177;SDS011;8195;51.220;9.746;2023-03-16T02:42:47;3.47;;;3.17;;
16177;SDS011;8195;51.220;9.746;2023-03-16T02:53:34;4.87;;;3.80;;
16177;SDS011;8195;51.220;9.746;2023-03-16T03:03:55;5.50;;;3.37;;
16177;SDS011;8195;51.220;9.746;2023-03-16T03:14:16;7.87;;;5.20;;
16177;SDS011;8195;51.220;9.746;2023-03-16T03:24:36;4.30;;;3.90;;
16177;SDS011;8195;51.220;9.746;2023-03-16T03:34:57;5.07;;;3.60;;
16177;SDS011;8195;51.220;9.746;2023-03-16T03:45:18;7.43;;;4.97;;
16177;SDS011;8195;51.220;9.746;2023-03-16T03:55:39;8.83;;;5.57;;
16177;SDS011;8195;51.220;9.746;2023-03-16T04:06:00;8.27;;;5.90;;
16177;SDS011;8195;51.220;9.746;2023-03-16T04:16:21;8.77;;;5.70;;
16177;SDS011;8195;51.220;9.746;2023-03-16T04:26:45;6.80;;;5.30;;
16177;SDS011;8195;51.220;9.746;2023-03-16T04:48:00;8.63;;;5.30;;
16177;SDS011;8195;51.220;9.746;2023-03-16T04:58:21;8.47;;;5.27;;
16177;SDS011;8195;51.220;9.746;2023-03-16T05:08:42;7.17;;;4.53;;
16177;SDS011;8195;51.220;9.746;2023-03-16T05:19:03;6.33;;;4.53;;
16177;SDS011;8195;51.220;9.746;2023-03-16T05:29:24;5.23;;;3.80;;
16177;SDS011;8195;51.220;9.746;2023-03-16T05:39:45;5.97;;;4.00;;
16177;SDS011;8195;51.220;9.746;2023-03-16T06:01:11;4.43;;;3.70;;
16177;SDS011;8195;51.220;9.746;2023-03-16T06:11:35;6.13;;;3.90;;
16177;SDS011;8195;51.220;9.746;2023-03-16T06:21:56;3.90;;;3.53;;
16177;SDS011;8195;51.220;9.746;2023-03-16T06:32:16;4.37;;;3.53;;
16177;SDS011;8195;51.220;9.746;2023-03-16T06:42:38;4.67;;;3.37;;
16177;SDS011;8195;51.220;9.746;2023-03-16T06:52:59;3.83;;;3.13;;
16177;SDS011;8195;51.220;9.746;2023-03-16T07:03:20;4.97;;;3.87;;
16177;SDS011;8195;51.220;9.746;2023-03-16T07:13:40;4.00;;;3.67;;
16177;SDS011;8195;51.220;9.746;2023-03-16T07:24:01;5.43;;;3.63;;
16177;SDS011;8195;51.220;9.746;2023-03-16T07:34:22;4.33;;;3.80;;
16177;SDS011;8195;51.220;9.746;2023-03-16T07:44:43;4.47;;;3.60;;
16177;SDS011;8195;51.220;9.746;2023-03-16T07:55:04;5.10;;;3.60;;
16177;SDS011;8195;51.220;9.746;2023-03-16T08:05:26;5.93;;;4.10;;
16177;SDS011;8195;51.220;9.746;2023-03-16T08:15:50;4.07;;;3.27;;
16177;SDS011;8195;51.220;9.746;2023-03-16T08:26:12;5.17;;;3.20;;
16177;SDS011;8195;51.220;9.746;2023-03-16T08:36:33;6.63;;;4.23;;
16177;SDS011;8195;51.220;9.746;2023-03-16T08:47:06;3.93;;;3.60;;
16177;SDS011;8195;51.220;9.746;2023-03-16T08:57:30;4.43;;;3.63;;
16177;SDS011;8195;51.220;9.746;2023-03-16T09:07:52;3.70;;;3.37;;
16177;SDS011;8195;51.220;9.746;2023-03-16T09:18:13;4.80;;;3.33;;
16177;SDS011;8195;51.220;9.746;2023-03-16T09:28:42;4.13;;;3.60;;
16177;SDS011;8195;51.220;9.746;2023-03-16T09:39:06;4.40;;;3.53;;
16177;SDS011;8195;51.220;9.746;2023-03-16T09:49:30;3.30;;;3.00;;
16177;SDS011;8195;51.220;9.746;2023-03-16T09:59:57;3.80;;;3.40;;
16177;SDS011;8195;51.220;9.746;2023-03-16T10:21:41;4.17;;;3.83;;
16177;SDS011;8195;51.220;9.746;2023-03-16T10:32:15;3.90;;;3.50;;
16177;SDS011;8195;51.220;9.746;2023-03-16T10:42:37;4.33;;;3.87;;
16177;SDS011;8195;51.220;9.746;2023-03-16T10:53:08;3.43;;;3.23;;
16177;SDS011;8195;51.220;9.746;2023-03-16T11:03:38;3.00;;;2.80;;
16177;SDS011;8195;51.220;9.746;2023-03-16T11:14:02;3.70;;;3.17;;
16177;SDS011;8195;51.220;9.746;2023-03-16T11:35:14;3.23;;;2.93;;
16177;SDS011;8195;51.220;9.746;2023-03-16T11:45:40;3.03;;;2.80;;
16177;SDS011;8195;51.220;9.746;2023-03-16T11:56:38;3.13;;;2.87;;
16177;SDS011;8195;51.220;9.746;2023-03-16T12:17:39;2.53;;;2.33;;
16177;SDS011;8195;51.220;9.746;2023-03-16T12:28:10;2.50;;;2.20;;
16177;SDS011;8195;51.220;9.746;2023-03-16T12:49:05;2.50;;;2.30;;
16177;SDS011;8195;51.220;9.746;2023-03-16T12:59:40;1.87;;;1.60;;
16177;SDS011;8195;51.220;9.746;2023-03-16T13:10:09;1.93;;;1.40;;
16177;SDS011;8195;51.220;9.746;2023-03-16T13:31:36;2.07;;;1.67;;
16177;SDS011;8195;51.220;9.746;2023-03-16T13:52:26;1.87;;;1.77;;
16177;SDS011;8195;51.220;9.746;2023-03-16T14:03:11;2.87;;;1.83;;
16177;SDS011;8195;51.220;9.746;2023-03-16T14:13:35;2.37;;;1.90;;
16177;SDS011;8195;51.220;9.746;2023-03-16T14:24:03;2.50;;;2.30;;
16177;SDS011;8195;51.220;9.746;2023-03-16T14:34:38;2.40;;;2.20;;
16177;SDS011;8195;51.220;9.746;2023-03-16T14:44:59;2.60;;;2.40;;
16177;SDS011;8195;51.220;9.746;2023-03-16T14:55:22;3.50;;;3.20;;
16177;SDS011;8195;51.220;9.746;2023-03-16T15:05:47;4.03;;;3.60;;
16177;SDS011;8195;51.220;9.746;2023-03-16T15:16:11;3.47;;;3.00;;
16177;SDS011;8195;51.220;9.746;2023-03-16T15:26:33;3.80;;;3.30;;
16177;SDS011;8195;51.220;9.746;2023-03-16T15:36:54;3.73;;;3.13;;
16177;SDS011;8195;51.220;9.746;2023-03-16T15:47:14;3.90;;;2.90;;
16177;SDS011;8195;51.220;9.746;2023-03-16T15:57:35;3.43;;;2.70;;
16177;SDS011;8195;51.220;9.746;2023-03-16T16:07:57;3.17;;;2.83;;
16177;SDS011;8195;51.220;9.746;2023-03-16T16:18:26;3.27;;;2.90;;
16177;SDS011;8195;51.220;9.746;2023-03-16T16:28:49;3.53;;;3.23;;
16177;SDS011;8195;51.220;9.746;2023-03-16T16:39:10;3.07;;;2.37;;
16177;SDS011;8195;51.220;9.746;2023-03-16T16:49:31;5.07;;;4.67;;
16177;SDS011;8195;51.220;9.746;2023-03-16T16:59:52;4.87;;;3.73;;
16177;SDS011;8195;51.220;9.746;2023-03-16T17:10:17;2.80;;;2.50;;
16177;SDS011;8195;51.220;9.746;2023-03-16T17:20:40;2.70;;;2.50;;
16177;SDS011;8195;51.220;9.746;2023-03-16T17:31:02;2.57;;;2.37;;
16177;SDS011;8195;51.220;9.746;2023-03-16T17:41:24;4.03;;;2.47;;
16177;SDS011;8195;51.220;9.746;2023-03-16T17:51:46;3.10;;;2.70;;
16177;SDS011;8195;51.220;9.746;2023-03-16T18:02:22;2.97;;;2.30;;
16177;SDS011;8195;51.220;9.746;2023-03-16T18:13:03;2.50;;;2.30;;
16177;SDS011;8195;51.220;9.746;2023-03-16T18:23:31;3.37;;;2.47;;
16177;SDS011;8195;51.220;9.746;2023-03-16T18:33:55;2.83;;;2.57;;
16177;SDS011;8195;51.220;9.746;2023-03-16T18:44:20;2.90;;;2.60;;
16177;SDS011;8195;51.220;9.746;2023-03-16T18:54:42;4.47;;;2.40;;
16177;SDS011;8195;51.220;9.746;2023-03-16T19:05:04;2.73;;;2.27;;
16177;SDS011;8195;51.220;9.746;2023-03-16T19:15:32;3.37;;;2.60;;
16177;SDS011;8195;51.220;9.746;2023-03-16T19:25:53;2.90;;;2.70;;
16177;SDS011;8195;51.220;9.746;2023-03-16T19:36:18;4.27;;;2.60;;
16177;SDS011;8195;51.220;9.746;2023-03-16T19:46:44;3.57;;;2.40;;
16177;SDS011;8195;51.220;9.746;2023-03-16T19:57:10;2.90;;;2.57;;
16177;SDS011;8195;51.220;9.746;2023-03-16T20:07:33;4.40;;;3.10;;
16177;SDS011;8195;51.220;9.746;2023-03-16T20:17:54;3.10;;;2.50;;
16177;SDS011;8195;51.220;9.746;2023-03-16T20:28:16;2.63;;;2.43;;
16177;SDS011;8195;51.220;9.746;2023-03-16T20:38:42;3.50;;;3.13;;
16177;SDS011;8195;51.220;9.746;2023-03-16T20:49:04;3.50;;;2.90;;
16177;SDS011;8195;51.220;9.746;2023-03-16T20:59:35;2.97;;;2.77;;
16177;SDS011;8195;51.220;9.746;2023-03-16T21:09:56;3.47;;;3.17;;
16177;SDS011;8195;51.220;9.746;2023-03-16T21:20:18;5.57;;;2.90;;
16177;SDS011;8195;51.220;9.746;2023-03-16T21:30:44;3.27;;;2.90;;
16177;SDS011;8195;51.220;9.746;2023-03-16T21:41:07;4.20;;;3.50;;
16177;SDS011;8195;51.220;9.746;2023-03-16T21:51:28;2.90;;;2.57;;
16177;SDS011;8195;51.220;9.746;2023-03-16T22:01:49;4.07;;;3.47;;
16177;SDS011;8195;51.220;9.746;2023-03-16T22:12:12;3.10;;;2.90;;
16177;SDS011;8195;51.220;9.746;2023-03-16T22:22:33;3.10;;;2.80;;
16177;SDS011;8195;51.220;9.746;2023-03-16T22:32:56;2.93;;;2.73;;
16177;SDS011;8195;51.220;9.746;2023-03-16T22:43:20;3.73;;;3.40;;
16177;SDS011;8195;51.220;9.746;2023-03-16T22:53:48;3.63;;;3.33;;
16177;SDS011;8195;51.220;9.746;2023-03-16T23:04:28;4.47;;;4.07;;
16177;SDS011;8195;51.220;9.746;2023-03-16T23:14:49;4.97;;;3.93;;
16177;SDS011;8195;51.220;9.746;2023-03-16T23:25:11;4.80;;;4.27;;
16177;SDS011;8195;51.220;9.746;2023-03-16T23:35:32;6.63;;;4.63;;
16177;SDS011;8195;51.220;9.746;2023-03-16T23:45:52;4.60;;;4.20;;
16177;SDS011;8195;51.220;9.746;2023-03-16T23:56:13;6.83;;;4.90;;
